Time;durP1;ratioP1;P1;durP2;ratioP2;P2;SDS_P1;SDS_P2;PMS_P1;PMS_P2;Temp;Humidity;BMP_temperature;BMP_pressure;BME280_temperature;BME280_humidity;BME280_pressure;Samples;Min_cycle;Max_cycle;Signal;HPM_P1;HPM_P2
2023/05/05 00:01:06;;;;;;;4.57;2.03;;;12.50;96.80;;;;;;5081445;28;20434;-75
2023/05/05 00:03:35;;;;;;;3.50;1.90;;;12.50;96.80;;;;;;5081328;28;20058;-75
2023/05/05 00:06:02;;;;;;;3.63;1.83;;;12.50;96.80;;;;;;5089127;27;20050;-75
2023/05/05 00:08:27;;;;;;;3.15;1.90;;;12.50;96.90;;;;;;5074369;28;20085;-75
2023/05/05 00:10:54;;;;;;;4.32;2.55;;;12.50;96.90;;;;;;5129494;27;20404;-75
2023/05/05 00:13:20;;;;;;;3.55;1.95;;;12.50;97.00;;;;;;5092374;28;20035;-75
2023/05/05 00:15:47;;;;;;;4.53;1.58;;;12.40;97.00;;;;;;5128295;27;20148;-75
2023/05/05 00:18:15;;;;;;;4.45;1.77;;;12.40;97.10;;;;;;5094211;28;20523;-75
2023/05/05 00:20:42;;;;;;;3.50;1.80;;;12.40;97.30;;;;;;5086489;27;20063;-75
2023/05/05 00:23:09;;;;;;;3.35;1.90;;;12.40;97.30;;;;;;5093187;28;20501;-75
2023/05/05 00:25:34;;;;;;;4.43;1.95;;;12.40;97.20;;;;;;5080441;28;20042;-75
2023/05/05 00:28:00;;;;;;;5.00;2.25;;;12.30;97.20;;;;;;5127774;27;20570;-75
2023/05/05 00:30:26;;;;;;;3.55;2.30;;;12.30;97.20;;;;;;5093582;28;20032;-75
2023/05/05 00:32:53;;;;;;;4.57;2.40;;;12.30;97.30;;;;;;5095181;28;20593;-75
2023/05/05 00:35:19;;;;;;;3.75;2.28;;;12.30;97.40;;;;;;5088944;28;20044;-75
2023/05/05 00:37:45;;;;;;;3.50;1.83;;;12.30;97.50;;;;;;5090671;28;20357;-75
2023/05/05 00:40:12;;;;;;;4.40;2.10;;;12.20;97.50;;;;;;5091790;28;20048;-75
2023/05/05 00:42:46;;;;;;;3.58;2.13;;;12.20;97.60;;;;;;5076923;28;20043;-75
2023/05/05 00:45:14;;;;;;;4.07;1.83;;;12.20;97.60;;;;;;5075880;28;20749;-75
2023/05/05 00:47:48;;;;;;;4.55;1.80;;;12.20;97.70;;;;;;5073136;28;20389;-75
2023/05/05 00:50:22;;;;;;;4.50;2.23;;;12.20;97.60;;;;;;5095222;28;20074;-75
2023/05/05 00:52:49;;;;;;;4.13;2.10;;;12.20;97.50;;;;;;5076053;28;20044;-75
2023/05/05 00:55:15;;;;;;;3.58;1.60;;;12.20;97.60;;;;;;5093536;27;20039;-75
2023/05/05 00:57:41;;;;;;;4.18;1.85;;;12.20;97.60;;;;;;5094045;28;20035;-75
2023/05/05 01:00:08;;;;;;;4.45;1.77;;;12.10;98.00;;;;;;5093378;28;20166;-75
2023/05/05 01:02:34;;;;;;;7.18;2.35;;;12.10;97.70;;;;;;5078580;28;20043;-75
2023/05/05 01:05:01;;;;;;;5.97;2.40;;;12.10;97.70;;;;;;5090891;28;20036;-75
2023/05/05 01:07:39;;;;;;;4.13;2.05;;;12.10;97.70;;;;;;5085459;28;21458;-75
2023/05/05 01:10:27;;;;;;;3.38;1.65;;;12.10;97.80;;;;;;5127815;27;20412;-75
2023/05/05 01:13:23;;;;;;;3.95;2.22;;;12.00;97.80;;;;;;5069239;28;20078;-75
2023/05/05 01:16:06;;;;;;;4.05;1.73;;;12.00;97.80;;;;;;5124239;27;20557;-75
2023/05/05 01:18:51;;;;;;;7.15;2.10;;;12.00;97.80;;;;;;5108975;27;20036;-75
2023/05/05 01:21:40;;;;;;;3.92;1.95;;;12.00;98.00;;;;;;5089846;28;20131;-75
2023/05/05 01:24:16;;;;;;;6.47;2.38;;;12.00;98.00;;;;;;5122897;27;20138;-75
2023/05/05 01:27:27;;;;;;;4.43;2.30;;;12.00;98.20;;;;;;5087137;28;20122;-75
2023/05/05 01:30:02;;;;;;;5.60;2.33;;;11.90;98.20;;;;;;5093144;28;20043;-75
2023/05/05 01:32:32;;;;;;;3.65;2.15;;;11.90;98.10;;;;;;5088446;28;20035;-75
2023/05/05 01:35:08;;;;;;;4.03;2.17;;;11.90;98.20;;;;;;5072806;28;20031;-75
2023/05/05 01:37:46;;;;;;;4.32;2.35;;;11.90;98.30;;;;;;5092168;28;20125;-75
2023/05/05 01:40:15;;;;;;;4.57;2.28;;;11.90;98.40;;;;;;5091562;28;20053;-75
2023/05/05 01:42:42;;;;;;;3.83;2.15;;;11.90;98.80;;;;;;5087177;28;20042;-75
2023/05/05 01:45:11;;;;;;;3.58;1.83;;;11.90;98.50;;;;;;5072732;28;20050;-75
2023/05/05 01:47:38;;;;;;;4.43;1.92;;;11.90;98.50;;;;;;5124829;27;20036;-75
2023/05/05 01:50:07;;;;;;;3.63;2.03;;;11.80;98.60;;;;;;5089479;28;20089;-75
2023/05/05 01:52:36;;;;;;;6.65;2.10;;;11.80;98.70;;;;;;5102745;27;20027;-75
2023/05/05 01:55:03;;;;;;;4.80;2.38;;;11.80;98.70;;;;;;5089857;28;20044;-75
2023/05/05 01:57:30;;;;;;;3.97;2.03;;;11.90;98.80;;;;;;5089084;28;20036;-75
2023/05/05 01:59:58;;;;;;;5.57;2.30;;;11.80;98.90;;;;;;5128621;27;20089;-75
2023/05/05 02:02:25;;;;;;;6.22;1.85;;;11.80;98.90;;;;;;5110106;27;20044;-75
2023/05/05 02:04:53;;;;;;;7.30;2.10;;;11.80;98.90;;;;;;5091818;28;20292;-75
2023/05/05 02:07:20;;;;;;;4.22;2.25;;;11.80;98.90;;;;;;5074159;28;20055;-75
2023/05/05 02:09:46;;;;;;;6.68;2.42;;;11.80;98.90;;;;;;5089661;28;20396;-75
2023/05/05 02:12:13;;;;;;;4.97;2.08;;;11.80;98.90;;;;;;5073964;28;20047;-75
2023/05/05 02:14:41;;;;;;;5.95;2.30;;;11.80;99.00;;;;;;5091173;28;20091;-75
2023/05/05 02:17:07;;;;;;;4.28;2.20;;;11.80;99.10;;;;;;5121432;27;20035;-75
2023/05/05 02:19:42;;;;;;;8.07;2.10;;;11.80;99.10;;;;;;5099031;28;20322;-75
2023/05/05 02:22:08;;;;;;;6.47;2.92;;;11.80;99.20;;;;;;5089435;28;20039;-75
2023/05/05 02:24:34;;;;;;;3.60;2.28;;;11.80;99.30;;;;;;5109327;28;20583;-75
2023/05/05 02:27:02;;;;;;;5.00;2.10;;;11.70;99.30;;;;;;5087514;28;20040;-75
2023/05/05 02:29:34;;;;;;;4.68;2.60;;;11.70;99.20;;;;;;5091889;28;20072;-75
2023/05/05 02:32:04;;;;;;;4.28;2.25;;;11.80;99.30;;;;;;5080559;28;20126;-75
2023/05/05 02:34:35;;;;;;;4.00;2.00;;;11.70;99.30;;;;;;5092712;28;20405;-75
2023/05/05 02:37:05;;;;;;;5.47;2.50;;;11.70;99.50;;;;;;5088364;28;20264;-75
2023/05/05 02:39:42;;;;;;;3.53;1.95;;;11.70;99.40;;;;;;5074902;28;20074;-75
2023/05/05 02:42:09;;;;;;;4.68;2.17;;;11.70;99.40;;;;;;5071180;28;20024;-75
2023/05/05 02:44:40;;;;;;;4.05;2.28;;;11.70;99.50;;;;;;5091610;28;20043;-75
2023/05/05 02:47:06;;;;;;;6.35;2.47;;;11.70;99.50;;;;;;5092586;28;20044;-75
2023/05/05 02:49:32;;;;;;;4.57;2.10;;;11.70;99.50;;;;;;5124266;27;20496;-75
2023/05/05 02:51:58;;;;;;;3.83;2.05;;;11.70;99.50;;;;;;5071126;28;20035;-75
2023/05/05 02:54:23;;;;;;;4.75;1.75;;;11.70;99.40;;;;;;5090934;28;20060;-75
2023/05/05 02:56:50;;;;;;;4.03;2.40;;;11.70;99.40;;;;;;5076241;28;20513;-75
2023/05/05 02:59:46;;;;;;;4.43;2.30;;;11.70;99.40;;;;;;5093572;28;20043;-75
2023/05/05 03:02:24;;;;;;;6.28;1.95;;;11.70;99.40;;;;;;5121000;27;20394;-75
2023/05/05 03:04:59;;;;;;;3.83;2.00;;;11.70;99.40;;;;;;5092462;28;20036;-75
2023/05/05 03:07:29;;;;;;;4.00;2.28;;;11.70;99.30;;;;;;5089039;28;20321;-75
2023/05/05 03:10:10;;;;;;;3.17;1.70;;;11.70;99.40;;;;;;5092183;28;20536;-75
2023/05/05 03:12:57;;;;;;;5.13;2.17;;;11.70;99.30;;;;;;5131333;27;20035;-75
2023/05/05 03:15:33;;;;;;;4.50;2.30;;;11.70;99.30;;;;;;5090057;28;20173;-75
2023/05/05 03:18:01;;;;;;;4.18;2.22;;;11.60;99.40;;;;;;5096732;28;20032;-75
2023/05/05 03:20:27;;;;;;;5.78;2.53;;;11.60;99.40;;;;;;5091611;28;20104;-75
2023/05/05 03:22:53;;;;;;;4.22;2.30;;;11.60;99.40;;;;;;5087775;28;20123;-75
2023/05/05 03:25:19;;;;;;;4.15;1.80;;;11.60;99.80;;;;;;5126016;27;20123;-75
2023/05/05 03:27:45;;;;;;;4.60;2.10;;;11.60;99.50;;;;;;5113907;27;20123;-75
2023/05/05 03:30:11;;;;;;;4.22;2.17;;;11.60;99.50;;;;;;5091514;28;20040;-75
2023/05/05 03:32:36;;;;;;;5.15;2.03;;;11.50;99.40;;;;;;5079624;28;20769;-75
2023/05/05 03:35:02;;;;;;;4.15;1.77;;;11.60;99.50;;;;;;5126544;27;20071;-75
2023/05/05 03:37:28;;;;;;;4.55;1.95;;;11.50;99.50;;;;;;5127328;27;20148;-75
2023/05/05 03:39:53;;;;;;;3.80;2.25;;;11.60;99.60;;;;;;5108327;27;20047;-75
2023/05/05 03:42:19;;;;;;;4.15;1.77;;;11.50;99.60;;;;;;5095435;28;20050;-75
2023/05/05 03:44:45;;;;;;;4.07;1.90;;;11.50;99.60;;;;;;5073626;28;20040;-75
2023/05/05 03:47:11;;;;;;;4.15;2.67;;;11.50;99.60;;;;;;5092856;28;20126;-75
2023/05/05 03:49:36;;;;;;;3.60;1.98;;;11.50;99.70;;;;;;5073770;28;20511;-75
2023/05/05 03:52:02;;;;;;;5.55;2.33;;;11.50;99.70;;;;;;5087052;28;20487;-75
2023/05/05 03:54:28;;;;;;;3.60;1.88;;;11.50;99.70;;;;;;5109875;27;20043;-75
2023/05/05 03:56:54;;;;;;;4.35;2.33;;;11.50;99.70;;;;;;5074256;28;20060;-75
2023/05/05 03:59:20;;;;;;;5.22;2.38;;;11.60;99.80;;;;;;5089189;27;20484;-75
2023/05/05 04:01:47;;;;;;;3.80;1.85;;;11.50;99.90;;;;;;5093334;27;20039;-75
2023/05/05 04:04:13;;;;;;;3.70;1.92;;;11.60;99.90;;;;;;5095430;28;20043;-75
2023/05/05 04:06:38;;;;;;;5.55;2.15;;;11.60;99.90;;;;;;5109323;27;20554;-77
2023/05/05 04:09:04;;;;;;;7.70;2.53;;;11.60;99.90;;;;;;5126620;27;20050;-75
2023/05/05 04:11:30;;;;;;;7.18;2.90;;;11.50;99.90;;;;;;5093390;28;20134;-75
2023/05/05 04:13:56;;;;;;;6.57;2.38;;;11.60;99.90;;;;;;5129255;27;20123;-75
2023/05/05 04:16:21;;;;;;;4.88;2.33;;;11.60;99.90;;;;;;5127102;27;20036;-75
2023/05/05 04:18:47;;;;;;;6.90;2.72;;;11.50;99.90;;;;;;5097668;28;20027;-75
2023/05/05 04:21:12;;;;;;;5.15;2.25;;;11.50;99.90;;;;;;5077433;28;20086;-75
2023/05/05 04:23:38;;;;;;;4.45;2.45;;;11.50;99.90;;;;;;5089139;27;20035;-75
2023/05/05 04:26:04;;;;;;;4.95;2.42;;;11.40;99.90;;;;;;5113853;27;20540;-75
2023/05/05 04:28:29;;;;;;;8.13;2.67;;;11.40;99.90;;;;;;5087545;28;20039;-75
2023/05/05 04:30:55;;;;;;;4.63;2.70;;;11.30;99.90;;;;;;5107662;27;20089;-75
2023/05/05 04:33:20;;;;;;;8.30;2.97;;;11.30;99.90;;;;;;5107526;27;20040;-75
2023/05/05 04:35:46;;;;;;;4.28;2.65;;;11.30;99.90;;;;;;5092108;28;21732;-75
2023/05/05 04:38:12;;;;;;;8.20;2.58;;;11.30;99.90;;;;;;5088873;28;20059;-75
2023/05/05 04:40:39;;;;;;;4.57;1.90;;;11.30;99.90;;;;;;5124566;27;20044;-75
2023/05/05 04:43:05;;;;;;;6.03;2.75;;;11.30;99.90;;;;;;5089613;28;20489;-75
2023/05/05 04:45:31;;;;;;;7.28;2.67;;;11.20;99.90;;;;;;5107056;27;20153;-75
2023/05/05 04:47:57;;;;;;;5.95;2.67;;;11.20;99.90;;;;;;5128233;27;20126;-75
2023/05/05 04:50:22;;;;;;;5.72;2.45;;;11.30;99.90;;;;;;5124362;27;20416;-75
2023/05/05 04:52:48;;;;;;;3.90;2.40;;;11.20;99.90;;;;;;5094923;28;20039;-75
2023/05/05 04:55:14;;;;;;;6.95;2.83;;;11.20;99.90;;;;;;5076229;28;20042;-75
2023/05/05 04:57:39;;;;;;;6.13;3.15;;;11.30;99.90;;;;;;5092623;28;20039;-74
2023/05/05 05:00:06;;;;;;;4.55;2.58;;;11.10;99.90;;;;;;5077590;28;20050;-74
2023/05/05 05:02:32;;;;;;;5.40;2.40;;;11.00;99.90;;;;;;5092788;27;20484;-74
2023/05/05 05:04:57;;;;;;;5.72;2.53;;;10.80;99.90;;;;;;5075183;28;20036;-74
2023/05/05 05:07:23;;;;;;;6.68;2.60;;;10.70;99.90;;;;;;5091154;28;20043;-75
2023/05/05 05:09:49;;;;;;;5.32;2.75;;;10.60;99.90;;;;;;5094115;28;20036;-75
2023/05/05 05:12:14;;;;;;;7.25;3.15;;;10.60;99.90;;;;;;5091200;28;20039;-75
2023/05/05 05:14:40;;;;;;;5.05;2.40;;;10.60;99.90;;;;;;5093669;28;20646;-74
2023/05/05 05:17:05;;;;;;;7.38;3.08;;;10.60;99.90;;;;;;5104436;27;20118;-74
2023/05/05 05:19:31;;;;;;;5.13;2.55;;;10.50;99.90;;;;;;5090632;28;20054;-74
2023/05/05 05:21:57;;;;;;;5.30;2.70;;;10.50;99.90;;;;;;5091555;28;20075;-74
2023/05/05 05:24:24;;;;;;;7.25;2.85;;;10.40;99.90;;;;;;5093361;28;20043;-74
2023/05/05 05:26:50;;;;;;;5.63;2.95;;;10.40;99.90;;;;;;5091168;28;20529;-74
2023/05/05 05:29:15;;;;;;;7.30;3.20;;;10.40;99.90;;;;;;5094643;28;20118;-74
2023/05/05 05:31:41;;;;;;;8.13;2.95;;;10.40;99.90;;;;;;5093112;28;20114;-74
2023/05/05 05:34:06;;;;;;;9.23;3.35;;;10.40;99.90;;;;;;5092891;28;20067;-74
2023/05/05 05:36:32;;;;;;;5.93;3.03;;;10.40;99.90;;;;;;5093823;28;20127;-74
2023/05/05 05:38:57;;;;;;;6.47;3.03;;;10.40;99.90;;;;;;5120813;27;20032;-74
2023/05/05 05:41:23;;;;;;;6.80;3.00;;;10.40;99.90;;;;;;5124019;27;20032;-74
2023/05/05 05:43:49;;;;;;;6.68;3.25;;;10.40;99.90;;;;;;5089050;28;20039;-74
2023/05/05 05:46:14;;;;;;;7.05;3.20;;;10.40;99.90;;;;;;5091202;28;20039;-74
2023/05/05 05:48:40;;;;;;;6.25;2.95;;;10.50;99.90;;;;;;5093264;28;20039;-74
2023/05/05 05:51:05;;;;;;;5.65;3.13;;;10.50;99.90;;;;;;5075526;28;20036;-74
2023/05/05 05:53:31;;;;;;;6.95;3.33;;;10.50;99.90;;;;;;5090982;28;20067;-74
2023/05/05 05:55:57;;;;;;;6.15;3.42;;;10.60;99.90;;;;;;5089350;28;20051;-74
2023/05/05 05:58:22;;;;;;;6.22;3.25;;;10.60;99.90;;;;;;5121558;27;20028;-75
2023/05/05 06:00:48;;;;;;;5.47;2.97;;;10.70;99.90;;;;;;5090565;28;20451;-74
2023/05/05 06:03:14;;;;;;;6.97;3.50;;;10.70;99.90;;;;;;5071173;28;20067;-75
2023/05/05 06:05:40;;;;;;;7.28;2.80;;;10.80;99.90;;;;;;5095408;28;20049;-74
2023/05/05 06:08:06;;;;;;;8.77;3.30;;;10.90;99.90;;;;;;5073412;28;20481;-74
2023/05/05 06:10:31;;;;;;;6.40;2.83;;;10.90;99.90;;;;;;5093279;28;20039;-74
2023/05/05 06:12:57;;;;;;;4.95;3.35;;;10.90;99.90;;;;;;5087158;28;20031;-74
2023/05/05 06:15:24;;;;;;;7.57;3.35;;;11.00;99.90;;;;;;5067374;28;20042;-74
2023/05/05 06:17:50;;;;;;;6.43;3.35;;;11.00;99.90;;;;;;5088009;28;20058;-74
2023/05/05 06:20:15;;;;;;;7.07;3.10;;;11.00;99.90;;;;;;5070980;28;20668;-75
2023/05/05 06:22:41;;;;;;;5.25;3.30;;;11.10;99.90;;;;;;5127300;27;20094;-74
2023/05/05 06:25:07;;;;;;;7.00;2.92;;;11.10;99.90;;;;;;5076280;28;20039;-74
2023/05/05 06:27:32;;;;;;;5.97;3.63;;;11.20;99.90;;;;;;5091919;28;21514;-74
2023/05/05 06:29:58;;;;;;;5.85;3.50;;;11.30;99.90;;;;;;5084252;28;20039;-74
2023/05/05 06:32:23;;;;;;;9.65;3.33;;;11.50;99.90;;;;;;5095316;28;20043;-74
2023/05/05 06:34:49;;;;;;;6.63;3.10;;;11.70;99.90;;;;;;5123609;27;20092;-74
2023/05/05 06:37:15;;;;;;;8.48;3.17;;;11.80;99.90;;;;;;5128708;27;20401;-75
2023/05/05 06:39:40;;;;;;;5.43;3.78;;;11.70;99.90;;;;;;5085828;28;20493;-75
2023/05/05 06:42:06;;;;;;;5.85;3.10;;;11.70;99.90;;;;;;5097199;28;20473;-75
2023/05/05 06:44:33;;;;;;;6.47;3.35;;;11.70;99.90;;;;;;5100164;28;20043;-75
2023/05/05 06:46:59;;;;;;;5.95;3.28;;;11.70;99.90;;;;;;5101050;28;20039;-75
2023/05/05 06:49:24;;;;;;;8.45;3.60;;;11.70;99.90;;;;;;5079689;28;20028;-75
2023/05/05 06:51:50;;;;;;;6.50;3.00;;;11.70;99.90;;;;;;5099732;28;20036;-75
2023/05/05 06:54:16;;;;;;;6.10;3.10;;;11.70;99.90;;;;;;5074948;28;20031;-75
2023/05/05 06:56:41;;;;;;;6.40;3.05;;;11.70;99.90;;;;;;5094310;27;20035;-74
2023/05/05 06:59:07;;;;;;;6.10;3.25;;;11.70;99.90;;;;;;5092587;27;20094;-74
2023/05/05 07:01:32;;;;;;;7.20;3.83;;;11.70;99.90;;;;;;5091078;27;20039;-75
2023/05/05 07:03:58;;;;;;;6.10;3.55;;;11.70;99.90;;;;;;5093265;27;20122;-74
2023/05/05 07:06:24;;;;;;;6.95;3.30;;;11.70;99.90;;;;;;5095774;27;20059;-74
2023/05/05 07:08:49;;;;;;;7.40;3.25;;;11.80;99.90;;;;;;5094035;28;20047;-74
2023/05/05 07:11:15;;;;;;;9.82;4.43;;;11.90;99.90;;;;;;5096112;27;20123;-74
2023/05/05 07:13:41;;;;;;;5.00;2.95;;;11.90;99.90;;;;;;5088706;27;20110;-75
2023/05/05 07:16:06;;;;;;;8.68;3.83;;;12.00;99.90;;;;;;5093864;28;20044;-74
2023/05/05 07:18:32;;;;;;;6.75;3.70;;;12.10;99.90;;;;;;5094133;27;20035;-75
2023/05/05 07:20:58;;;;;;;8.18;3.72;;;12.10;99.90;;;;;;5092011;27;20622;-74
2023/05/05 07:23:23;;;;;;;5.78;3.60;;;12.20;99.90;;;;;;5094854;27;20035;-74
2023/05/05 07:25:49;;;;;;;6.32;3.72;;;12.20;99.90;;;;;;5082276;28;20137;-75
2023/05/05 07:28:15;;;;;;;6.40;3.20;;;12.20;99.90;;;;;;5078344;28;20052;-75
2023/05/05 07:30:40;;;;;;;7.35;3.40;;;12.30;99.90;;;;;;5091614;27;21317;-75
2023/05/05 07:33:06;;;;;;;6.70;3.72;;;12.30;99.90;;;;;;5127413;27;20070;-75
2023/05/05 07:35:31;;;;;;;8.02;3.95;;;12.40;99.90;;;;;;5109716;27;20520;-75
2023/05/05 07:37:57;;;;;;;7.00;3.63;;;12.40;99.90;;;;;;5090961;27;20036;-75
2023/05/05 07:40:23;;;;;;;8.07;3.85;;;12.40;99.90;;;;;;5090808;27;20039;-75
2023/05/05 07:42:48;;;;;;;9.55;3.67;;;12.50;99.90;;;;;;5092033;27;20043;-75
2023/05/05 07:45:14;;;;;;;10.60;4.20;;;12.50;99.90;;;;;;5103981;27;20173;-75
2023/05/05 07:47:40;;;;;;;8.13;4.00;;;12.50;99.90;;;;;;5071460;27;20036;-75
2023/05/05 07:50:06;;;;;;;7.30;4.03;;;12.60;99.90;;;;;;5089489;27;20039;-75
2023/05/05 07:52:31;;;;;;;7.28;4.03;;;12.60;99.90;;;;;;5091076;27;20059;-75
2023/05/05 07:54:57;;;;;;;10.60;4.07;;;12.70;99.90;;;;;;5090697;27;20108;-75
2023/05/05 07:57:22;;;;;;;8.25;4.18;;;12.70;99.90;;;;;;5085326;27;20043;-75
2023/05/05 07:59:48;;;;;;;7.35;4.00;;;12.80;99.90;;;;;;5115514;27;20074;-75
2023/05/05 08:02:14;;;;;;;9.80;4.43;;;12.80;99.90;;;;;;5076982;27;20035;-75
2023/05/05 08:04:40;;;;;;;6.90;4.30;;;12.90;99.90;;;;;;5096293;27;20035;-74
2023/05/05 08:07:09;;;;;;;9.75;4.45;;;12.90;99.90;;;;;;5101566;28;20032;-74
2023/05/05 08:09:35;;;;;;;9.07;4.65;;;13.00;99.90;;;;;;5074557;28;20035;-74
2023/05/05 08:12:01;;;;;;;7.25;4.00;;;13.00;99.90;;;;;;5093905;27;20509;-78
2023/05/05 08:14:27;;;;;;;10.07;4.45;;;13.10;99.90;;;;;;5074902;28;20036;-76
2023/05/05 08:16:53;;;;;;;9.57;4.35;;;13.10;99.90;;;;;;5101821;28;20027;-76
2023/05/05 08:19:19;;;;;;;6.95;4.18;;;13.10;99.90;;;;;;5096277;27;20084;-76
2023/05/05 08:21:44;;;;;;;9.48;4.10;;;13.20;99.90;;;;;;5103865;28;20569;-76
2023/05/05 08:24:10;;;;;;;10.02;4.93;;;13.20;99.90;;;;;;5084307;28;20044;-76
2023/05/05 08:26:35;;;;;;;9.02;4.22;;;13.20;99.90;;;;;;5130799;27;20075;-73
2023/05/05 08:29:01;;;;;;;8.40;4.85;;;13.30;99.90;;;;;;5100093;28;20044;-72
2023/05/05 08:31:31;;;;;;;7.65;4.40;;;13.30;99.90;;;;;;5086041;28;20073;-72
2023/05/05 08:33:56;;;;;;;10.77;4.60;;;13.40;99.90;;;;;;5100370;28;20036;-74
2023/05/05 08:36:22;;;;;;;7.50;4.50;;;13.40;99.90;;;;;;5129721;27;20035;-73
2023/05/05 08:38:48;;;;;;;10.02;4.55;;;13.50;99.90;;;;;;5099417;28;20042;-73
2023/05/05 08:41:16;;;;;;;11.43;4.78;;;13.60;99.90;;;;;;5094247;27;20036;-75
2023/05/05 08:43:44;;;;;;;11.07;5.07;;;13.70;99.90;;;;;;5091136;28;20073;-76
2023/05/05 08:46:11;;;;;;;12.63;5.13;;;13.80;99.90;;;;;;5098087;28;20104;-76
2023/05/05 08:48:40;;;;;;;10.07;5.25;;;14.00;99.90;;;;;;5079896;28;20134;-76
2023/05/05 08:51:06;;;;;;;8.40;4.53;;;14.10;99.90;;;;;;5093546;27;20036;-76
2023/05/05 08:53:57;;;;;;;9.15;5.03;;;14.20;99.90;;;;;;5089191;27;20024;-76
2023/05/05 08:56:28;;;;;;;9.82;4.28;;;14.30;99.90;;;;;;5122191;27;20139;-76
2023/05/05 08:58:55;;;;;;;9.40;4.25;;;14.40;99.90;;;;;;5077285;28;20104;-76
2023/05/05 09:01:22;;;;;;;9.40;4.47;;;14.60;99.90;;;;;;5087720;27;20057;-76
2023/05/05 09:03:48;;;;;;;8.82;4.97;;;14.80;99.90;;;;;;5085362;27;20101;-75
2023/05/05 09:06:14;;;;;;;10.52;5.30;;;14.80;99.90;;;;;;5075631;28;20511;-76
2023/05/05 09:08:40;;;;;;;13.23;5.10;;;14.80;99.90;;;;;;5069882;28;20032;-76
2023/05/05 09:11:06;;;;;;;8.15;4.65;;;14.80;99.90;;;;;;5091281;27;20525;-77
2023/05/05 09:13:32;;;;;;;9.60;5.25;;;14.90;99.90;;;;;;5090649;27;20572;-76
2023/05/05 09:15:58;;;;;;;10.63;5.10;;;14.90;99.90;;;;;;5122607;27;20039;-76
2023/05/05 09:18:24;;;;;;;12.27;5.55;;;14.90;99.90;;;;;;5100271;27;20043;-76
2023/05/05 09:20:50;;;;;;;10.48;4.55;;;14.90;99.90;;;;;;5076629;27;20051;-77
2023/05/05 09:23:19;;;;;;;11.15;5.57;;;14.90;99.90;;;;;;5084339;27;20070;-76
2023/05/05 09:25:48;;;;;;;12.18;5.78;;;14.90;99.90;;;;;;5070614;27;20051;-76
2023/05/05 09:28:16;;;;;;;15.65;5.82;;;14.80;99.90;;;;;;5086461;27;20505;-77
2023/05/05 09:30:43;;;;;;;12.85;6.80;;;15.00;99.90;;;;;;5087492;28;20119;-76
2023/05/05 09:33:09;;;;;;;14.00;5.75;;;15.00;99.90;;;;;;5076512;27;20032;-77
2023/05/05 09:35:54;;;;;;;13.02;6.30;;;15.10;99.90;;;;;;5071813;28;20093;-77
2023/05/05 09:38:21;;;;;;;13.43;6.38;;;15.10;99.90;;;;;;5121658;27;20089;-77
2023/05/05 09:40:48;;;;;;;15.93;7.05;;;15.10;99.90;;;;;;5087959;27;20126;-77
2023/05/05 09:43:15;;;;;;;12.90;6.70;;;15.10;99.90;;;;;;5072617;28;20040;-77
2023/05/05 09:45:42;;;;;;;12.82;6.65;;;15.30;99.90;;;;;;5090105;28;20040;-77
2023/05/05 09:48:21;;;;;;;12.82;6.70;;;15.40;99.90;;;;;;5088936;27;20580;-77
2023/05/05 09:50:47;;;;;;;21.17;6.60;;;15.50;99.90;;;;;;5103667;27;20043;-77
2023/05/05 09:53:13;;;;;;;14.55;6.38;;;15.60;99.90;;;;;;5094606;28;20523;-77
2023/05/05 09:55:38;;;;;;;13.00;6.63;;;15.60;99.90;;;;;;5091440;27;20163;-77
2023/05/05 09:58:22;;;;;;;14.40;5.93;;;15.80;99.90;;;;;;5075168;28;20517;-77
2023/05/05 10:00:48;;;;;;;13.63;6.85;;;16.00;99.90;;;;;;5090386;28;20048;-77
2023/05/05 10:03:13;;;;;;;11.85;5.65;;;16.20;99.90;;;;;;5071355;28;20039;-77
2023/05/05 10:05:59;;;;;;;13.20;6.10;;;16.40;99.90;;;;;;5092046;28;20039;-77
2023/05/05 10:08:27;;;;;;;14.48;5.85;;;16.60;99.90;;;;;;5090977;27;20458;-77
2023/05/05 10:10:56;;;;;;;14.30;7.05;;;16.70;99.90;;;;;;5071259;28;20501;-77
2023/05/05 10:13:23;;;;;;;13.82;6.97;;;16.80;99.90;;;;;;5117527;27;20043;-77
2023/05/05 10:15:50;;;;;;;13.95;6.53;;;16.70;99.90;;;;;;5098574;28;20110;-77
2023/05/05 10:18:24;;;;;;;13.23;5.47;;;16.70;99.90;;;;;;5087020;27;20442;-77
2023/05/05 10:20:58;;;;;;;13.93;6.68;;;16.70;99.90;;;;;;5086984;28;20453;-77
2023/05/05 10:23:46;;;;;;;13.30;6.10;;;16.70;99.90;;;;;;5123898;27;20047;-78
2023/05/05 10:26:13;;;;;;;12.90;5.97;;;16.90;99.90;;;;;;5088667;27;20052;-76
2023/05/05 10:28:43;;;;;;;13.00;5.78;;;16.90;99.90;;;;;;5098151;28;20127;-77
2023/05/05 10:31:16;;;;;;;12.38;6.00;;;16.80;99.90;;;;;;5092339;28;20055;-77
2023/05/05 10:33:56;;;;;;;11.40;6.53;;;16.80;99.90;;;;;;5087836;28;20047;-77
2023/05/05 10:36:23;;;;;;;11.52;6.15;;;16.80;99.90;;;;;;5090825;28;20548;-77
2023/05/05 10:38:53;;;;;;;13.23;6.45;;;16.90;99.90;;;;;;5084348;28;20070;-77
2023/05/05 10:41:20;;;;;;;10.32;5.20;;;16.80;99.90;;;;;;5069264;28;20614;-77
2023/05/05 10:43:46;;;;;;;11.43;5.70;;;17.00;99.90;;;;;;5087293;28;20062;-77
2023/05/05 10:46:12;;;;;;;11.93;5.72;;;17.10;99.90;;;;;;5088754;28;20843;-77
2023/05/05 10:48:48;;;;;;;10.68;4.95;;;17.20;99.90;;;;;;5085342;28;20032;-76
2023/05/05 10:51:18;;;;;;;13.10;6.20;;;17.00;99.90;;;;;;5072823;28;20051;-76
2023/05/05 10:53:55;;;;;;;8.65;5.10;;;17.20;99.90;;;;;;5086140;28;20032;-77
2023/05/05 10:56:30;;;;;;;10.05;4.82;;;17.20;99.90;;;;;;5068495;28;20050;-77
2023/05/05 10:58:55;;;;;;;10.32;5.15;;;17.10;99.90;;;;;;5100382;28;20036;-77
2023/05/05 11:01:32;;;;;;;8.93;4.80;;;17.10;99.90;;;;;;5120941;27;20048;-77
2023/05/05 11:04:18;;;;;;;9.65;4.68;;;17.10;99.90;;;;;;5071481;28;20060;-78
2023/05/05 11:07:07;;;;;;;9.18;4.50;;;17.20;99.90;;;;;;5093972;27;20040;-78
2023/05/05 11:09:35;;;;;;;9.35;4.68;;;17.30;99.90;;;;;;5089504;28;20055;-79
2023/05/05 11:12:04;;;;;;;11.43;4.95;;;17.50;99.90;;;;;;5104418;27;20058;-77
2023/05/05 11:14:29;;;;;;;11.50;4.80;;;17.50;99.90;;;;;;5088422;28;20166;-78
2023/05/05 11:16:55;;;;;;;9.07;4.47;;;17.60;99.90;;;;;;5088521;28;20848;-78
2023/05/05 11:19:47;;;;;;;9.30;4.45;;;17.60;99.90;;;;;;5085650;28;20087;-78
2023/05/05 11:22:12;;;;;;;8.77;4.80;;;17.60;99.90;;;;;;5085335;28;20051;-78
2023/05/05 11:24:38;;;;;;;10.75;5.47;;;17.50;99.90;;;;;;5086801;28;20062;-77
2023/05/05 11:27:05;;;;;;;13.45;5.15;;;17.50;99.90;;;;;;5092635;27;20050;-77
2023/05/05 11:30:05;;;;;;;12.00;4.68;;;17.40;99.90;;;;;;5111436;28;20039;-77
2023/05/05 11:32:32;;;;;;;9.73;4.32;;;17.40;99.90;;;;;;5109129;28;20062;-77
2023/05/05 11:34:59;;;;;;;9.70;4.75;;;17.30;99.90;;;;;;5078952;28;20035;-77
2023/05/05 11:37:26;;;;;;;11.50;4.30;;;17.20;99.90;;;;;;5106572;28;20085;-77
2023/05/05 11:40:22;;;;;;;8.80;4.43;;;17.20;99.90;;;;;;5092881;28;20052;-77
2023/05/05 11:42:48;;;;;;;8.88;2.80;;;17.10;99.90;;;;;;5107944;27;20031;-77
2023/05/05 11:45:24;;;;;;;6.25;2.65;;;17.10;99.90;;;;;;5144742;27;20031;-77
2023/05/05 11:47:49;;;;;;;5.43;2.50;;;17.00;99.90;;;;;;5093573;28;20043;-78
2023/05/05 11:50:17;;;;;;;4.60;2.22;;;17.00;99.90;;;;;;5143557;27;20040;-78
2023/05/05 11:52:43;;;;;;;4.38;1.95;;;17.10;99.90;;;;;;5105508;27;20028;-78
2023/05/05 11:55:09;;;;;;;3.10;1.40;;;17.10;99.90;;;;;;5107613;28;20176;-77
2023/05/05 11:57:34;;;;;;;5.70;1.73;;;17.10;99.90;;;;;;5091003;27;20043;-77
2023/05/05 12:00:03;;;;;;;3.10;1.35;;;17.20;99.90;;;;;;5090301;28;20039;-77
2023/05/05 12:02:30;;;;;;;5.50;2.70;;;17.30;99.90;;;;;;5080193;28;20036;-77
2023/05/05 12:04:57;;;;;;;4.95;2.33;;;17.40;99.90;;;;;;5103782;27;20039;-77
2023/05/05 12:07:25;;;;;;;4.60;2.10;;;17.40;99.90;;;;;;5109619;28;20042;-77
2023/05/05 12:09:52;;;;;;;4.70;1.50;;;17.40;99.90;;;;;;5093805;28;20067;-77
2023/05/05 12:12:17;;;;;;;8.05;1.67;;;17.40;99.90;;;;;;5109615;28;20401;-77
2023/05/05 12:14:51;;;;;;;3.30;1.60;;;17.40;99.90;;;;;;5110799;28;20038;-77
2023/05/05 12:17:21;;;;;;;4.85;1.30;;;17.40;99.90;;;;;;5104800;27;20127;-77
2023/05/05 12:19:51;;;;;;;2.90;1.00;;;17.40;99.90;;;;;;5110213;28;20048;-77
2023/05/05 12:22:26;;;;;;;2.95;1.08;;;17.40;99.90;;;;;;5110023;28;20043;-77
2023/05/05 12:24:56;;;;;;;4.05;1.40;;;17.50;99.90;;;;;;5093690;28;20130;-77
2023/05/05 12:27:22;;;;;;;4.38;1.23;;;17.50;99.90;;;;;;5092286;28;20051;-78
2023/05/05 12:29:49;;;;;;;4.18;1.60;;;17.50;99.90;;;;;;5083493;28;20520;-78
2023/05/05 12:32:19;;;;;;;3.47;1.95;;;17.50;99.90;;;;;;5103317;27;20039;-77
2023/05/05 12:34:46;;;;;;;3.88;1.42;;;17.50;99.90;;;;;;5110333;28;20035;-77
2023/05/05 12:37:11;;;;;;;3.13;1.40;;;17.50;99.90;;;;;;5092391;28;20557;-77
2023/05/05 12:39:37;;;;;;;3.33;1.40;;;17.50;99.90;;;;;;5093245;28;20131;-77
2023/05/05 12:42:03;;;;;;;3.17;1.15;;;17.50;99.90;;;;;;5133102;27;20458;-77
2023/05/05 12:44:36;;;;;;;2.42;1.30;;;17.50;99.90;;;;;;5107401;28;20043;-77
2023/05/05 12:47:02;;;;;;;1.90;0.85;;;17.40;99.90;;;;;;5109737;28;20346;-77
2023/05/05 12:49:28;;;;;;;2.80;1.00;;;17.40;99.90;;;;;;5126915;27;20039;-78
2023/05/05 12:51:55;;;;;;;3.30;1.10;;;17.40;99.90;;;;;;5132254;27;20111;-78